createdAt,value
2019-03-22T00:05:19.995Z,102149.50
2019-03-22T00:07:48.753Z,102143.14
2019-03-22T00:14:09.804Z,102145.23
2019-03-22T00:23:13.802Z,102136.05
2019-03-22T00:25:54.194Z,102142.65
2019-03-22T00:28:41.111Z,102140.84
2019-03-22T00:31:20.955Z,102137.14
2019-03-22T00:34:07.867Z,102136.64
2019-03-22T00:42:29.582Z,102135.16
2019-03-22T00:48:29.887Z,102125.25
2019-03-22T00:51:09.942Z,102119.32
2019-03-22T00:54:09.138Z,102125.13
2019-03-22T00:59:48.051Z,102117.73
2019-03-22T01:08:52.057Z,102111.81
2019-03-22T01:20:42.518Z,102107.09
2019-03-22T01:23:29.775Z,102108.91
2019-03-22T01:26:09.297Z,102102.92
2019-03-22T01:37:18.116Z,102097.90
2019-03-22T01:51:51.034Z,102102.52
2019-03-22T01:54:18.770Z,102103.59
2019-03-22T01:56:47.472Z,102103.84
2019-03-22T02:02:09.961Z,102105.25
2019-03-22T02:05:18.263Z,102093.39
2019-03-22T02:08:05.131Z,102096.59
2019-03-22T02:10:32.897Z,102101.13
2019-03-22T02:13:20.921Z,102104.67
2019-03-22T02:16:36.324Z,102106.98
2019-03-22T02:19:04.093Z,102110.77
2019-03-22T02:22:12.458Z,102118.78
2019-03-22T02:31:35.768Z,102120.97
2019-03-22T02:34:03.484Z,102117.87
2019-03-22T02:36:31.243Z,102115.30
2019-03-22T02:39:00.035Z,102114.47
2019-03-22T02:41:27.713Z,102111.89
2019-03-22T02:43:55.933Z,102104.87
2019-03-22T02:46:23.851Z,102106.59
2019-03-22T02:48:51.646Z,102109.00
2019-03-22T02:51:19.626Z,102103.30
2019-03-22T02:53:47.604Z,102103.83
2019-03-22T02:56:15.597Z,102101.39
2019-03-22T02:58:43.728Z,102109.58
2019-03-22T03:01:11.437Z,102110.45
2019-03-22T03:03:39.531Z,102106.31
2019-03-22T03:06:07.151Z,102108.61
2019-03-22T03:08:34.881Z,102100.73
2019-03-22T03:11:02.559Z,102096.37
2019-03-22T03:13:31.010Z,102099.47
2019-03-22T03:15:59.126Z,102098.41
2019-03-22T03:18:26.918Z,102096.70
2019-03-22T03:20:54.559Z,102097.68
2019-03-22T03:23:22.372Z,102086.31
2019-03-22T03:25:50.131Z,102084.66
2019-03-22T03:28:18.980Z,102087.94
2019-03-22T03:30:46.817Z,102090.59
2019-03-22T03:33:14.515Z,102089.62
2019-03-22T03:35:42.281Z,102095.25
2019-03-22T03:38:10.075Z,102092.87
2019-03-22T03:40:37.938Z,102100.27
2019-03-22T03:43:05.925Z,102097.48
2019-03-22T03:45:34.693Z,102093.98
2019-03-22T03:48:03.299Z,102101.77
2019-03-22T03:50:31.469Z,102091.43
2019-03-22T03:52:59.443Z,102093.22
2019-03-22T03:55:27.916Z,102095.58
2019-03-22T03:57:55.740Z,102090.63
2019-03-22T04:00:23.544Z,102089.34
2019-03-22T04:02:51.140Z,102084.28
2019-03-22T04:05:18.967Z,102089.97
2019-03-22T04:07:46.817Z,102087.36
2019-03-22T04:10:14.582Z,102095.84
2019-03-22T04:12:42.302Z,102091.87
2019-03-22T04:15:10.319Z,102094.39
2019-03-22T04:17:39.111Z,102079.89
2019-03-22T04:20:06.871Z,102080.95
2019-03-22T04:22:36.324Z,102084.19
2019-03-22T04:25:05.306Z,102083.45
2019-03-22T04:27:33.159Z,102080.21
2019-03-22T04:30:01.408Z,102082.53
2019-03-22T04:32:29.366Z,102078.03
2019-03-22T04:34:56.984Z,102075.70
2019-03-22T04:37:24.804Z,102068.23
2019-03-22T04:39:52.703Z,102065.21
2019-03-22T04:42:20.399Z,102065.62
2019-03-22T04:44:48.171Z,102062.67
2019-03-22T04:47:19.477Z,102063.73
2019-03-22T04:49:49.113Z,102066.12
2019-03-22T04:52:22.697Z,102065.80
2019-03-22T04:54:54.330Z,102068.31
2019-03-22T04:57:24.208Z,102066.42
2019-03-22T04:59:53.159Z,102067.94
2019-03-22T05:02:21.980Z,102073.41
2019-03-22T05:04:50.143Z,102075.36
2019-03-22T05:07:18.254Z,102083.89
2019-03-22T05:09:46.851Z,102085.66
2019-03-22T05:12:18.377Z,102087.02
2019-03-22T05:14:47.038Z,102091.33
2019-03-22T05:17:15.590Z,102091.68
2019-03-22T05:19:48.450Z,102086.17
2019-03-22T05:22:19.027Z,102092.77
2019-03-22T05:24:47.844Z,102100.52
2019-03-22T05:27:16.903Z,102106.70
2019-03-22T05:29:46.774Z,102105.32
2019-03-22T05:32:16.604Z,102100.20
2019-03-22T05:34:44.672Z,102098.14
2019-03-22T05:37:12.419Z,102109.59
2019-03-22T05:39:40.153Z,102108.40
2019-03-22T05:42:07.880Z,102110.14
2019-03-22T05:44:35.655Z,102113.19
2019-03-22T05:47:03.659Z,102111.77
2019-03-22T05:49:31.794Z,102118.39
2019-03-22T05:51:59.502Z,102127.75
2019-03-22T05:54:27.226Z,102126.20
2019-03-22T05:56:55.077Z,102128.73
2019-03-22T05:59:22.934Z,102130.64
2019-03-22T06:01:50.657Z,102131.03
2019-03-22T06:04:18.422Z,102129.91
2019-03-22T06:06:46.580Z,102138.02
2019-03-22T06:09:14.254Z,102128.69
2019-03-22T06:11:42.589Z,102130.12
2019-03-22T06:14:10.278Z,102132.92
2019-03-22T06:16:37.979Z,102127.77
2019-03-22T06:19:05.763Z,102131.77
2019-03-22T06:21:33.606Z,102142.37
2019-03-22T06:24:01.411Z,102144.32
2019-03-22T06:26:29.327Z,102149.17
2019-03-22T06:28:57.108Z,102147.05
2019-03-22T06:31:24.901Z,102151.33
2019-03-22T06:33:52.757Z,102159.97
2019-03-22T06:36:20.663Z,102153.28
2019-03-22T06:38:48.357Z,102151.55
2019-03-22T06:41:16.132Z,102159.59
2019-03-22T06:43:43.874Z,102157.72
2019-03-22T06:46:12.440Z,102161.92
2019-03-22T06:48:40.259Z,102161.61
2019-03-22T06:51:08.160Z,102155.78
2019-03-22T06:53:35.828Z,102158.31
2019-03-22T06:56:03.599Z,102160.91
2019-03-22T06:58:31.497Z,102157.99
2019-03-22T07:00:59.715Z,102163.19
2019-03-22T07:03:27.401Z,102159.16
2019-03-22T07:05:55.144Z,102169.03
2019-03-22T07:08:22.839Z,102166.58
2019-03-22T07:10:50.998Z,102163.97
2019-03-22T07:13:19.068Z,102169.88
2019-03-22T07:15:46.784Z,102162.31
2019-03-22T07:18:14.558Z,102165.23
2019-03-22T07:20:42.730Z,102161.85
2019-03-22T07:23:10.423Z,102163.91
2019-03-22T07:25:38.260Z,102164.76
2019-03-22T07:28:05.980Z,102164.77
2019-03-22T07:30:33.812Z,102163.91
2019-03-22T07:33:01.556Z,102166.16
2019-03-22T07:35:30.189Z,102168.07
2019-03-22T07:37:58.020Z,102166.29
2019-03-22T07:40:26.202Z,102168.72
2019-03-22T07:42:53.919Z,102166.28
2019-03-22T07:45:21.620Z,102168.48
2019-03-22T07:47:49.623Z,102166.58
2019-03-22T07:50:17.344Z,102168.56
2019-03-22T07:52:45.508Z,102164.66
2019-03-22T07:55:13.242Z,102166.31
2019-03-22T07:57:41.028Z,102172.91
2019-03-22T08:00:09.280Z,102172.98
2019-03-22T08:02:37.022Z,102172.84
2019-03-22T08:05:05.659Z,102162.80
2019-03-22T08:07:33.372Z,102165.44
2019-03-22T08:10:01.257Z,102163.13
2019-03-22T08:12:29.116Z,102158.86
2019-03-22T08:14:57.293Z,102154.72
2019-03-22T08:17:25.839Z,102151.66
2019-03-22T08:19:53.872Z,102150.77
2019-03-22T08:22:21.738Z,102151.08
2019-03-22T08:24:49.429Z,102146.95
2019-03-22T08:27:17.141Z,102146.67
2019-03-22T08:29:44.917Z,102155.45
2019-03-22T08:32:12.977Z,102144.57
2019-03-22T08:35:12.152Z,102145.63
2019-03-22T08:41:14.697Z,102136.74
2019-03-22T08:52:46.483Z,102129.02
2019-03-22T08:55:14.254Z,102138.02
2019-03-22T09:00:57.727Z,102136.48
2019-03-22T09:06:45.579Z,102131.63
2019-03-22T09:09:13.473Z,102136.31
2019-03-22T09:11:52.742Z,102126.45
2019-03-22T09:14:20.595Z,102128.63
2019-03-22T09:16:48.282Z,102132.96
2019-03-22T09:19:27.961Z,102130.40
2019-03-22T09:21:55.796Z,102129.98
2019-03-22T09:24:23.720Z,102126.23
2019-03-22T09:27:03.185Z,102131.38
2019-03-22T09:32:10.713Z,102124.00
2019-03-22T09:35:19.038Z,102124.84
2019-03-22T09:37:46.842Z,102120.64
2019-03-22T09:43:16.106Z,102125.64
2019-03-22T09:45:44.102Z,102123.77
2019-03-22T09:51:14.422Z,102121.74
2019-03-22T09:53:48.476Z,102113.68
2019-03-22T09:56:16.746Z,102109.11
2019-03-22T09:58:44.643Z,102103.64
2019-03-22T10:04:14.284Z,102086.61
2019-03-22T10:06:42.403Z,102082.08
2019-03-22T10:09:10.231Z,102082.05
2019-03-22T10:12:18.603Z,102076.48
2019-03-22T10:14:46.421Z,102073.60
2019-03-22T10:17:14.359Z,102079.34
2019-03-22T10:19:42.353Z,102076.05
2019-03-22T10:22:31.769Z,102071.06
2019-03-22T10:24:59.680Z,102066.42
2019-03-22T10:27:27.708Z,102061.52
2019-03-22T10:29:55.438Z,102065.32
2019-03-22T10:35:26.341Z,102057.66
2019-03-22T10:38:39.682Z,102065.33
2019-03-22T10:41:19.436Z,102060.36
2019-03-22T10:43:47.735Z,102053.49
2019-03-22T10:46:56.535Z,102050.63
2019-03-22T10:53:03.638Z,102042.17
2019-03-22T10:55:31.292Z,102044.01
2019-03-22T10:58:21.457Z,102038.47
2019-03-22T11:06:32.665Z,102027.16
2019-03-22T11:09:32.103Z,102032.23
2019-03-22T11:14:39.738Z,102022.52
2019-03-22T11:17:07.552Z,102022.98
2019-03-22T11:19:35.320Z,102024.02
2019-03-22T11:22:43.514Z,102015.30
2019-03-22T11:28:45.540Z,102009.44
2019-03-22T11:37:16.090Z,101998.73
2019-03-22T11:42:56.942Z,102009.84
2019-03-22T11:51:17.208Z,101999.58
2019-03-22T11:53:44.911Z,101994.20
2019-03-22T11:56:53.202Z,101992.66
2019-03-22T12:02:55.504Z,101971.86
2019-03-22T12:11:45.726Z,101983.80
2019-03-22T12:14:53.928Z,101968.53
2019-03-22T12:23:43.566Z,101964.06
2019-03-22T12:26:51.861Z,101963.83
2019-03-22T12:29:38.853Z,101963.59
2019-03-22T12:32:47.307Z,101952.23
2019-03-22T12:35:34.287Z,101949.60
2019-03-22T12:38:42.601Z,101952.34
2019-03-22T12:44:31.260Z,101943.36
2019-03-22T12:46:59.011Z,101934.02
2019-03-22T12:52:39.995Z,101923.89
2019-03-22T12:58:42.135Z,101914.38
2019-03-22T13:01:41.428Z,101914.78
2019-03-22T13:04:20.996Z,101898.15
2019-03-22T13:06:48.711Z,101901.75
2019-03-22T13:09:35.655Z,101898.73
2019-03-22T13:12:03.371Z,101896.23
2019-03-22T13:14:31.107Z,101888.98
2019-03-22T13:20:00.885Z,101894.07
2019-03-22T13:22:29.055Z,101884.03
2019-03-22T13:24:57.195Z,101874.31
2019-03-22T13:27:26.160Z,101855.66
2019-03-22T13:29:54.861Z,101859.20
2019-03-22T13:32:23.027Z,101856.19
2019-03-22T13:35:12.686Z,101853.63
2019-03-22T13:38:00.049Z,101854.91
2019-03-22T13:41:08.611Z,101847.53
2019-03-22T13:43:55.541Z,101852.41
2019-03-22T13:46:23.312Z,101839.95
2019-03-22T13:48:51.218Z,101840.75
2019-03-22T13:51:19.032Z,101831.16
2019-03-22T13:53:46.824Z,101817.16
2019-03-22T13:59:49.020Z,101819.44
2019-03-22T14:02:28.621Z,101812.67
2019-03-22T14:05:08.126Z,101808.73
2019-03-22T14:07:35.864Z,101807.12
2019-03-22T14:10:04.288Z,101810.96
2019-03-22T14:13:12.581Z,101810.27
2019-03-22T14:15:40.673Z,101803.62
2019-03-22T14:18:08.340Z,101801.52
2019-03-22T14:23:37.866Z,101796.45
2019-03-22T14:26:46.131Z,101784.70
2019-03-22T14:29:25.698Z,101790.27
2019-03-22T14:35:07.448Z,101770.17
2019-03-22T14:37:46.950Z,101762.70
2019-03-22T14:40:55.145Z,101767.45
2019-03-22T14:46:57.722Z,101755.27
2019-03-22T14:50:05.996Z,101748.77
2019-03-22T14:53:05.287Z,101750.28
2019-03-22T14:58:47.500Z,101740.02
2019-03-22T15:01:15.353Z,101743.47
2019-03-22T15:03:43.152Z,101732.66
2019-03-22T15:06:10.924Z,101737.83
2019-03-22T15:08:38.724Z,101728.13
2019-03-22T15:11:06.359Z,101729.05
2019-03-22T15:13:39.525Z,101729.82
2019-03-22T15:16:29.460Z,101721.54
2019-03-22T15:19:19.714Z,101719.65
2019-03-22T15:22:25.770Z,101714.22
2019-03-22T15:25:11.906Z,101719.53
2019-03-22T15:28:04.434Z,101713.23
2019-03-22T15:30:49.962Z,101713.08
2019-03-22T15:33:46.492Z,101704.42
2019-03-22T15:36:42.828Z,101703.50
2019-03-22T15:39:36.151Z,101702.16
2019-03-22T15:42:04.018Z,101700.94
2019-03-22T15:44:31.818Z,101697.73
2019-03-22T15:46:59.526Z,101692.32
2019-03-22T15:49:27.371Z,101697.19
2019-03-22T15:51:55.450Z,101698.10
2019-03-22T15:54:23.182Z,101687.81
2019-03-22T15:56:51.210Z,101682.91
2019-03-22T15:59:19.360Z,101678.35
2019-03-22T16:01:47.100Z,101673.39
2019-03-22T16:04:15.415Z,101678.46
2019-03-22T16:06:43.546Z,101688.06
2019-03-22T16:09:11.250Z,101677.37
2019-03-22T16:11:39.226Z,101671.33
2019-03-22T16:14:07.269Z,101682.51
2019-03-22T16:16:35.101Z,101679.80
2019-03-22T16:19:02.828Z,101671.02
2019-03-22T16:21:30.602Z,101673.30
2019-03-22T16:23:58.358Z,101665.34
2019-03-22T16:26:26.124Z,101679.26
2019-03-22T16:28:53.867Z,101669.45
2019-03-22T16:31:21.679Z,101667.13
2019-03-22T16:33:54.363Z,101679.13
2019-03-22T16:36:19.205Z,101677.02
2019-03-22T16:38:47.043Z,101675.78
2019-03-22T16:41:14.773Z,101669.16
2019-03-22T16:43:42.601Z,101671.48
2019-03-22T16:46:10.359Z,101678.06
2019-03-22T16:48:38.159Z,101673.51
2019-03-22T16:51:05.919Z,101670.02
2019-03-22T16:53:33.699Z,101672.65
2019-03-22T16:56:01.389Z,101666.75
2019-03-22T16:58:29.238Z,101666.41
2019-03-22T17:00:57.345Z,101674.04
2019-03-22T17:03:25.106Z,101675.38
2019-03-22T17:05:52.755Z,101668.13
2019-03-22T17:08:20.741Z,101671.77
2019-03-22T17:10:48.959Z,101667.37
2019-03-22T17:13:16.986Z,101673.25
2019-03-22T17:15:44.623Z,101666.41
2019-03-22T17:18:12.888Z,101671.50
2019-03-22T17:20:40.632Z,101673.11
2019-03-22T17:23:08.449Z,101671.30
2019-03-22T17:25:36.548Z,101675.78
2019-03-22T17:28:04.461Z,101678.80
2019-03-22T17:30:32.276Z,101669.65
2019-03-22T17:33:00.059Z,101676.64
2019-03-22T17:35:28.128Z,101675.63
2019-03-22T17:37:55.921Z,101672.02
2019-03-22T17:40:23.904Z,101673.87
2019-03-22T17:42:51.546Z,101676.80
2019-03-22T17:45:19.550Z,101671.61
2019-03-22T17:47:47.220Z,101672.37
2019-03-22T17:50:15.743Z,101675.84
2019-03-22T17:52:43.699Z,101672.36
2019-03-22T17:55:11.749Z,101672.22
2019-03-22T17:57:39.447Z,101671.13
2019-03-22T18:00:07.328Z,101674.50
2019-03-22T18:02:35.199Z,101681.59
2019-03-22T18:05:03.448Z,101674.36
2019-03-22T18:07:31.168Z,101676.85
2019-03-22T18:09:59.071Z,101681.23
2019-03-22T18:12:26.771Z,101681.64
2019-03-22T18:14:54.464Z,101687.48
2019-03-22T18:17:22.960Z,101684.53
2019-03-22T18:19:50.660Z,101682.14
2019-03-22T18:22:18.462Z,101683.83
2019-03-22T18:24:46.212Z,101694.97
2019-03-22T18:27:13.904Z,101688.80
2019-03-22T18:29:41.496Z,101685.97
2019-03-22T18:32:09.712Z,101689.14
2019-03-22T18:34:37.616Z,101689.34
2019-03-22T18:37:05.426Z,101690.33
2019-03-22T18:39:33.274Z,101694.93
2019-03-22T18:42:01.007Z,101700.95
2019-03-22T18:44:28.772Z,101696.30
2019-03-22T18:46:56.613Z,101700.02
2019-03-22T18:49:24.422Z,101699.24
2019-03-22T18:51:52.329Z,101701.30
2019-03-22T18:54:20.090Z,101702.77
2019-03-22T18:56:48.071Z,101701.95
2019-03-22T18:59:15.801Z,101705.40
2019-03-22T19:01:43.575Z,101705.22
2019-03-22T19:04:11.332Z,101709.59
2019-03-22T19:06:39.425Z,101708.95
2019-03-22T19:09:07.943Z,101712.86
2019-03-22T19:11:35.928Z,101706.28
2019-03-22T19:14:03.696Z,101711.53
2019-03-22T19:16:31.661Z,101703.92
2019-03-22T19:18:59.791Z,101698.08
2019-03-22T19:21:27.534Z,101697.89
2019-03-22T19:23:55.327Z,101696.72
2019-03-22T19:26:23.139Z,101695.05
2019-03-22T19:28:50.839Z,101694.21
2019-03-22T19:31:18.627Z,101697.73
2019-03-22T19:33:46.307Z,101700.77
2019-03-22T19:36:14.055Z,101693.30
2019-03-22T19:38:42.076Z,101698.21
2019-03-22T19:41:09.865Z,101694.90
2019-03-22T19:43:37.940Z,101687.27
2019-03-22T19:46:05.685Z,101697.59
2019-03-22T19:48:33.430Z,101684.92
2019-03-22T19:51:01.156Z,101687.34
2019-03-22T19:53:29.264Z,101686.83
2019-03-22T19:55:57.067Z,101690.98
2019-03-22T19:58:24.701Z,101694.81
2019-03-22T20:00:52.646Z,101696.88
2019-03-22T20:03:20.358Z,101686.23
2019-03-22T20:05:48.054Z,101693.41
2019-03-22T20:08:16.010Z,101687.49
2019-03-22T20:10:43.738Z,101690.80
2019-03-22T20:13:11.498Z,101691.72
2019-03-22T20:15:39.367Z,101693.70
2019-03-22T20:18:07.360Z,101692.79
2019-03-22T20:20:36.212Z,101695.23
2019-03-22T20:23:04.272Z,101699.38
2019-03-22T20:25:32.029Z,101694.47
2019-03-22T20:27:59.632Z,101697.46
2019-03-22T20:30:27.453Z,101692.18
2019-03-22T20:32:55.201Z,101689.55
2019-03-22T20:35:22.944Z,101706.67
2019-03-22T20:37:50.767Z,101707.60
2019-03-22T20:40:19.010Z,101705.91
2019-03-22T20:42:47.109Z,101710.14
2019-03-22T20:45:23.627Z,101703.61
2019-03-22T20:47:44.981Z,101709.02
2019-03-22T20:50:13.004Z,101709.45
2019-03-22T20:52:41.028Z,101708.72
2019-03-22T20:55:09.526Z,101705.68
2019-03-22T20:57:46.958Z,101708.95
2019-03-22T21:03:28.154Z,101712.61
2019-03-22T21:08:55.958Z,101709.67
2019-03-22T21:11:35.142Z,101707.30
2019-03-22T21:20:17.492Z,101701.92
2019-03-22T21:22:45.176Z,101699.41
2019-03-22T21:25:24.916Z,101694.59
2019-03-22T21:27:52.615Z,101698.42
2019-03-22T21:30:32.258Z,101695.18
2019-03-22T21:33:19.094Z,101688.68
2019-03-22T21:38:48.317Z,101687.11
2019-03-22T21:43:56.153Z,101685.63
2019-03-22T21:46:24.220Z,101687.95
2019-03-22T21:48:51.963Z,101690.28
2019-03-22T21:52:00.251Z,101688.66
2019-03-22T21:58:12.663Z,101688.34
2019-03-22T22:00:40.369Z,101681.84
2019-03-22T22:03:07.984Z,101687.34
2019-03-22T22:05:54.934Z,101684.03
2019-03-22T22:08:22.662Z,101687.30
2019-03-22T22:10:59.430Z,101682.42
2019-03-22T22:14:10.888Z,101680.49
2019-03-22T22:16:38.605Z,101678.67
2019-03-22T22:19:06.205Z,101679.61
2019-03-22T22:21:33.996Z,101672.97
2019-03-22T22:30:23.851Z,101673.98
2019-03-22T22:36:04.928Z,101674.69
2019-03-22T22:38:44.428Z,101669.78
2019-03-22T22:41:12.191Z,101670.03
2019-03-22T22:44:20.492Z,101669.09
2019-03-22T22:49:50.578Z,101672.82
2019-03-22T22:52:18.319Z,101670.98
2019-03-22T22:54:57.835Z,101676.53
2019-03-22T22:57:44.718Z,101679.43
2019-03-22T23:00:13.365Z,101674.80
2019-03-22T23:02:41.083Z,101676.41
2019-03-22T23:05:49.384Z,101672.84
2019-03-22T23:08:17.455Z,101675.47
2019-03-22T23:11:25.746Z,101678.84
2019-03-22T23:17:13.781Z,101674.98
2019-03-22T23:23:02.553Z,101669.47
2019-03-22T23:25:49.494Z,101672.64
2019-03-22T23:28:57.813Z,101675.67
2019-03-22T23:31:25.545Z,101678.59
2019-03-22T23:37:08.009Z,101672.45
2019-03-22T23:42:48.660Z,101669.67
2019-03-22T23:53:49.146Z,101670.39
2019-03-22T23:56:36.044Z,101668.50
